Briefing drone pour Cran-gevrier

Rechercher une autre localisation

Conditions de vol :


Nous sommes le : Vendredi 09 décembre 2022
Il est 23:49 UTC (00:49 LT)

Lever de soleil : 06:39 UTC (07:39 LT)
Coucher de soleil : 16:16 UTC (17:16 LT)

Météo

L'essentiel des conditions de vol

VIGILANCE MÉTÉO FRANCE - Haute-Savoie (74)
Vigilance Jaune : Neige-verglas / Avalanches
CARTE TEMSI
CARTES DES FRONTS
METAR de LFLP
LFLP 082330Z AUTO VRB02KT 5000 -RA BR BKN044 OVC054 02/01 Q1004

Date d'émission: 08/12/2022
Heure d'émission: 23:30 UTC
Vent: Variable 2 KT (4 km/h)
Visibilité horizontale: 5000 m
Plafond :
- Nuages morcelés à 4400ft (1341m)
- Couvert à 5400ft (1646m)
Température: 2 °C
Point de rosée: 1 °C
Humidité: 93%
Pression (QNH): 1004 hPa
Conditions: Faible pluie
TAF de LFLP
AMD LFLP 081908Z 0819/0915 CNL

Conditions prévues :

Heure d'émission : Bulletin éffectué le 08 à 19:00 UTC
Prévision : Valide du 08 a 19:00 UTC au 09 a 15:00 UTC
Nuages : à 0ft (0 m)
WEBCAM POUR CRAN-GEVRIER

Réglementation

Voler en sécurité

CARTES AERONAUTIQUE 1/500.000
CARTE AZBA (Reseau basse altitude)
CARTES VAC (LFLP)
SUP AIP




Chargement des AIP...
NOTAM (CRAN-GEVRIER + Terrain à proximité / FIR )




Chargement des NOTAMS...
CONTACT PREFECTURE 74


Avertissement : Les données mises à disposition sont indicatives. Oxygène Drone ne pourra être tenu responsable de dégâts causés aux biens et aux personnes.